createdAt,value
2019-05-06T00:00:34.271Z,52.22
2019-05-06T00:01:38.485Z,52.12
2019-05-06T00:02:43.581Z,51.93
2019-05-06T00:03:48.013Z,52.13
2019-05-06T00:04:54.201Z,52.11
2019-05-06T00:05:58.489Z,52.14
2019-05-06T00:07:04.263Z,52.00
2019-05-06T00:08:08.583Z,52.26
2019-05-06T00:09:14.695Z,52.27
2019-05-06T00:10:30.381Z,52.19
2019-05-06T00:11:34.855Z,52.17
2019-05-06T00:12:39.261Z,52.21
2019-05-06T00:13:44.576Z,52.28
2019-05-06T00:14:48.982Z,52.38
2019-05-06T00:15:54.340Z,52.34
2019-05-06T00:16:59.765Z,52.11
2019-05-06T00:18:04.952Z,52.57
2019-05-06T00:19:09.235Z,52.57
2019-05-06T00:20:14.683Z,52.32
2019-05-06T00:21:20.070Z,52.29
2019-05-06T00:22:24.273Z,52.30
2019-05-06T00:23:30.241Z,52.48
2019-05-06T00:24:36.055Z,52.84
2019-05-06T00:25:44.822Z,52.73
2019-05-06T00:26:50.714Z,52.56
2019-05-06T00:28:14.914Z,52.48
2019-05-06T00:29:20.870Z,52.73
2019-05-06T00:30:25.225Z,52.90
2019-05-06T00:31:29.400Z,52.80
2019-05-06T00:32:34.878Z,52.74
2019-05-06T00:33:39.163Z,53.03
2019-05-06T00:34:44.451Z,53.12
2019-05-06T00:35:48.814Z,53.21
2019-05-06T00:36:54.528Z,52.90
2019-05-06T00:37:59.028Z,52.96
2019-05-06T00:39:07.114Z,52.88
2019-05-06T00:40:14.084Z,52.76
2019-05-06T00:41:35.898Z,52.82
2019-05-06T00:42:39.725Z,52.87
2019-05-06T00:43:43.953Z,53.05
2019-05-06T00:44:48.299Z,53.04
2019-05-06T00:45:53.653Z,52.91
2019-05-06T00:46:57.960Z,52.73
2019-05-06T00:48:04.503Z,52.81
2019-05-06T00:49:08.026Z,52.68
2019-05-06T00:50:14.234Z,52.59
2019-05-06T00:51:18.595Z,52.53
2019-05-06T00:52:23.934Z,52.45
2019-05-06T00:53:31.724Z,52.41
2019-05-06T00:54:36.291Z,52.31
2019-05-06T00:55:40.675Z,52.34
2019-05-06T00:56:46.481Z,52.39
2019-05-06T00:57:54.486Z,52.43
2019-05-06T00:59:03.687Z,52.38
2019-05-06T01:00:07.708Z,52.36
2019-05-06T01:01:24.114Z,52.29
2019-05-06T01:02:18.218Z,52.27
2019-05-06T01:03:23.863Z,52.21
2019-05-06T01:04:28.249Z,52.04
2019-05-06T01:05:33.749Z,52.08
2019-05-06T01:06:38.075Z,52.10
2019-05-06T01:07:43.989Z,52.07
2019-05-06T01:08:48.613Z,51.83
2019-05-06T01:09:54.173Z,51.78
2019-05-06T01:10:58.698Z,51.83
2019-05-06T01:12:03.724Z,51.82
2019-05-06T01:13:10.715Z,51.81
2019-05-06T01:14:20.740Z,51.81
2019-05-06T01:15:26.712Z,51.79
2019-05-06T01:16:30.934Z,51.80
2019-05-06T01:17:35.241Z,51.86
2019-05-06T01:18:39.566Z,51.81
2019-05-06T01:19:45.705Z,51.90
2019-05-06T01:20:51.637Z,52.01
2019-05-06T01:21:55.999Z,51.93
2019-05-06T01:23:00.249Z,51.85
2019-05-06T01:24:05.036Z,51.80
2019-05-06T01:25:09.301Z,51.76
2019-05-06T01:26:15.180Z,51.65
2019-05-06T01:27:19.488Z,51.52
2019-05-06T01:28:24.507Z,51.52
2019-05-06T01:29:28.796Z,51.51
2019-05-06T01:30:33.688Z,51.41
2019-05-06T01:31:42.914Z,51.30
2019-05-06T01:32:44.000Z,51.43
2019-05-06T01:33:48.182Z,51.36
2019-05-06T01:34:53.693Z,51.49
2019-05-06T01:35:58.221Z,51.45
2019-05-06T01:37:03.706Z,51.39
2019-05-06T01:38:21.547Z,51.43
2019-05-06T01:39:28.507Z,51.60
2019-05-06T01:40:34.625Z,51.54
2019-05-06T01:41:46.161Z,51.49
2019-05-06T01:42:54.019Z,51.52
2019-05-06T01:43:59.106Z,51.49
2019-05-06T01:45:04.704Z,51.75
2019-05-06T01:46:09.735Z,51.70
2019-05-06T01:47:14.556Z,51.71
2019-05-06T01:48:20.416Z,51.64
2019-05-06T01:49:24.677Z,51.43
2019-05-06T01:50:28.842Z,51.43
2019-05-06T01:51:34.814Z,51.59
2019-05-06T01:52:39.231Z,51.54
2019-05-06T01:53:44.826Z,51.61
2019-05-06T01:54:49.201Z,51.50
2019-05-06T01:55:54.606Z,51.44
2019-05-06T01:56:58.889Z,51.46
2019-05-06T01:58:04.987Z,51.58
2019-05-06T01:59:09.009Z,51.67
2019-05-06T02:00:14.067Z,51.59
2019-05-06T02:01:18.460Z,51.50
2019-05-06T02:02:23.883Z,51.49
2019-05-06T02:03:28.294Z,51.62
2019-05-06T02:04:33.699Z,51.56
2019-05-06T02:05:38.054Z,51.70
2019-05-06T02:06:43.723Z,51.68
2019-05-06T02:07:48.148Z,51.84
2019-05-06T02:08:54.019Z,51.87
2019-05-06T02:09:58.420Z,51.76
2019-05-06T02:11:04.138Z,51.77
2019-05-06T02:12:08.615Z,51.82
2019-05-06T02:13:14.237Z,51.75
2019-05-06T02:14:18.498Z,51.89
2019-05-06T02:15:23.882Z,51.95
2019-05-06T02:16:28.308Z,51.93
2019-05-06T02:17:34.386Z,52.06
2019-05-06T02:18:38.450Z,51.95
2019-05-06T02:19:43.837Z,51.92
2019-05-06T02:20:49.926Z,51.92
2019-05-06T02:21:55.808Z,52.01
2019-05-06T02:23:01.705Z,51.92
2019-05-06T02:24:13.542Z,52.07
2019-05-06T02:25:19.411Z,51.93
2019-05-06T02:26:23.981Z,51.87
2019-05-06T02:27:28.401Z,51.87
2019-05-06T02:28:34.457Z,51.75
2019-05-06T02:29:40.294Z,51.73
2019-05-06T02:30:46.129Z,51.68
2019-05-06T02:32:19.873Z,51.81
2019-05-06T02:33:26.774Z,51.80
2019-05-06T02:34:36.551Z,51.94
2019-05-06T02:35:48.470Z,52.01
2019-05-06T02:37:09.698Z,51.89
2019-05-06T02:38:32.593Z,51.87
2019-05-06T02:39:33.903Z,52.16
2019-05-06T02:40:36.499Z,52.49
2019-05-06T02:41:43.036Z,52.59
2019-05-06T02:42:46.607Z,52.60
2019-05-06T02:43:53.960Z,52.76
2019-05-06T02:44:56.809Z,52.86
2019-05-06T02:46:03.942Z,52.87
2019-05-06T02:47:24.736Z,52.83
2019-05-06T02:48:33.386Z,52.72
2019-05-06T02:49:38.238Z,52.63
2019-05-06T02:50:47.009Z,52.44
2019-05-06T02:51:53.452Z,52.31
2019-05-06T02:52:57.222Z,52.64
2019-05-06T02:54:03.307Z,52.53
2019-05-06T02:55:07.381Z,52.57
2019-05-06T02:56:13.411Z,52.68
2019-05-06T02:57:17.662Z,52.57
2019-05-06T02:58:23.696Z,52.50
2019-05-06T02:59:27.889Z,52.52
2019-05-06T03:00:32.977Z,52.32
2019-05-06T03:01:37.494Z,52.20
2019-05-06T03:02:44.893Z,52.21
2019-05-06T03:03:48.823Z,52.17
2019-05-06T03:04:53.150Z,52.11
2019-05-06T03:05:57.352Z,52.11
2019-05-06T03:07:03.686Z,52.27
2019-05-06T03:08:07.424Z,52.12
2019-05-06T03:09:13.451Z,52.26
2019-05-06T03:10:18.066Z,52.49
2019-05-06T03:11:23.971Z,52.60
2019-05-06T03:12:28.390Z,52.51
2019-05-06T03:13:33.935Z,52.52
2019-05-06T03:14:38.558Z,52.44
2019-05-06T03:15:43.481Z,52.40
2019-05-06T03:16:48.220Z,52.53
2019-05-06T03:17:55.092Z,52.63
2019-05-06T03:18:58.288Z,52.66
2019-05-06T03:20:04.567Z,52.45
2019-05-06T03:21:13.998Z,52.33
2019-05-06T03:22:19.983Z,52.47
2019-05-06T03:23:43.839Z,52.48
2019-05-06T03:24:49.848Z,52.66
2019-05-06T03:25:54.182Z,52.50
2019-05-06T03:26:58.624Z,52.61
2019-05-06T03:28:04.280Z,52.38
2019-05-06T03:29:08.687Z,52.75
2019-05-06T03:30:16.506Z,52.92
2019-05-06T03:31:19.230Z,53.00
2019-05-06T03:32:30.352Z,53.01
2019-05-06T03:33:46.642Z,52.98
2019-05-06T03:34:57.851Z,52.89
2019-05-06T03:35:56.135Z,52.77
2019-05-06T03:36:49.163Z,52.79
2019-05-06T03:37:53.591Z,52.85
2019-05-06T03:38:58.022Z,52.78
2019-05-06T03:40:03.053Z,52.80
2019-05-06T03:41:07.456Z,52.84
2019-05-06T03:42:13.682Z,52.95
2019-05-06T03:43:18.684Z,52.88
2019-05-06T03:44:23.903Z,52.93
2019-05-06T03:45:33.663Z,52.80
2019-05-06T03:46:55.820Z,52.93
2019-05-06T03:48:07.601Z,52.90
2019-05-06T03:49:13.488Z,52.81
2019-05-06T03:50:17.735Z,52.69
2019-05-06T03:51:23.459Z,52.85
2019-05-06T03:52:29.367Z,53.17
2019-05-06T03:53:34.900Z,53.05
2019-05-06T03:54:39.257Z,53.15
2019-05-06T03:55:46.770Z,53.01
2019-05-06T03:56:53.564Z,53.03
2019-05-06T03:57:57.196Z,53.14
2019-05-06T03:59:02.784Z,52.83
2019-05-06T04:00:08.090Z,53.19
2019-05-06T04:01:13.288Z,53.06
2019-05-06T04:02:17.870Z,53.03
2019-05-06T04:03:42.057Z,53.08
2019-05-06T04:04:29.493Z,53.15
2019-05-06T04:05:33.737Z,53.17
2019-05-06T04:06:37.990Z,53.28
2019-05-06T04:07:45.394Z,53.16
2019-05-06T04:08:49.044Z,53.20
2019-05-06T04:09:53.889Z,53.17
2019-05-06T04:10:58.182Z,53.15
2019-05-06T04:12:03.572Z,53.07
2019-05-06T04:13:09.129Z,53.09
2019-05-06T04:14:14.132Z,53.21
2019-05-06T04:15:18.470Z,53.12
2019-05-06T04:16:24.288Z,53.08
2019-05-06T04:17:32.718Z,53.09
2019-05-06T04:18:54.260Z,53.15
2019-05-06T04:20:04.053Z,53.31
2019-05-06T04:21:16.854Z,53.29
2019-05-06T04:22:25.707Z,53.40
2019-05-06T04:23:33.997Z,53.45
2019-05-06T04:24:49.040Z,53.64
2019-05-06T04:26:03.535Z,53.55
2019-05-06T04:27:26.266Z,53.56
2019-05-06T04:28:34.165Z,53.62
2019-05-06T04:29:37.977Z,53.94
2019-05-06T04:30:43.114Z,53.88
2019-05-06T04:31:47.582Z,53.99
2019-05-06T04:32:53.221Z,53.96
2019-05-06T04:34:09.831Z,54.14
2019-05-06T04:35:04.920Z,54.08
2019-05-06T04:36:09.206Z,54.03
2019-05-06T04:37:14.402Z,53.92
2019-05-06T04:38:18.896Z,54.01
2019-05-06T04:39:23.641Z,53.90
2019-05-06T04:40:27.988Z,53.95
2019-05-06T04:41:34.249Z,53.84
2019-05-06T04:42:38.277Z,53.64
2019-05-06T04:43:43.861Z,53.82
2019-05-06T04:44:48.373Z,53.77
2019-05-06T04:45:54.041Z,53.78
2019-05-06T04:46:58.641Z,53.90
2019-05-06T04:48:04.287Z,53.92
2019-05-06T04:49:14.078Z,53.91
2019-05-06T04:50:14.531Z,54.02
2019-05-06T04:51:18.789Z,53.97
2019-05-06T04:52:26.026Z,54.06
2019-05-06T04:53:29.018Z,54.06
2019-05-06T04:54:33.767Z,54.05
2019-05-06T04:55:39.118Z,53.95
2019-05-06T04:56:44.005Z,53.98
2019-05-06T04:57:48.438Z,54.03
2019-05-06T04:58:53.829Z,54.02
2019-05-06T04:59:58.330Z,54.46
2019-05-06T05:01:04.330Z,54.35
2019-05-06T05:02:08.819Z,54.45
2019-05-06T05:03:14.176Z,54.39
2019-05-06T05:04:28.289Z,54.31
2019-05-06T05:05:24.569Z,54.42
2019-05-06T05:06:28.828Z,54.28
2019-05-06T05:07:33.524Z,54.31
2019-05-06T05:08:38.409Z,54.31
2019-05-06T05:09:43.046Z,54.32
2019-05-06T05:10:54.918Z,54.26
2019-05-06T05:12:02.707Z,54.14
2019-05-06T05:13:08.445Z,54.11
2019-05-06T05:14:14.337Z,54.16
2019-05-06T05:15:20.209Z,54.14
2019-05-06T05:16:26.035Z,54.08
2019-05-06T05:17:46.780Z,54.18
2019-05-06T05:18:55.367Z,54.31
2019-05-06T05:19:59.559Z,54.29
2019-05-06T05:21:04.328Z,54.51
2019-05-06T05:22:08.521Z,54.37
2019-05-06T05:23:14.345Z,54.41
2019-05-06T05:24:18.523Z,54.29
2019-05-06T05:25:22.756Z,54.36
2019-05-06T05:26:28.622Z,54.33
2019-05-06T05:27:33.054Z,54.35
2019-05-06T05:28:37.276Z,54.34
2019-05-06T05:29:42.339Z,54.42
2019-05-06T05:30:46.663Z,54.42
2019-05-06T05:31:52.950Z,54.40
2019-05-06T05:32:56.977Z,54.40
2019-05-06T05:34:02.079Z,54.41
2019-05-06T05:35:06.879Z,54.38
2019-05-06T05:36:12.430Z,54.31
2019-05-06T05:37:16.819Z,54.40
2019-05-06T05:38:22.732Z,54.44
2019-05-06T05:39:27.098Z,54.43
2019-05-06T05:40:32.176Z,54.43
2019-05-06T05:41:36.593Z,54.51
2019-05-06T05:42:48.197Z,54.40
2019-05-06T05:43:58.263Z,54.34
2019-05-06T05:45:02.826Z,54.35
2019-05-06T05:46:07.101Z,54.36
2019-05-06T05:47:12.358Z,54.26
2019-05-06T05:48:32.432Z,54.18
2019-05-06T05:49:37.985Z,54.26
2019-05-06T05:50:43.633Z,54.35
2019-05-06T05:51:47.887Z,54.43
2019-05-06T05:52:52.458Z,54.26
2019-05-06T05:53:57.025Z,54.12
2019-05-06T05:55:02.747Z,54.19
2019-05-06T05:56:07.213Z,54.23
2019-05-06T05:57:11.923Z,54.24
2019-05-06T05:58:16.333Z,54.17
2019-05-06T05:59:23.169Z,54.01
2019-05-06T06:00:28.716Z,54.12
2019-05-06T06:01:32.965Z,53.99
2019-05-06T06:02:37.258Z,53.96
2019-05-06T06:03:42.169Z,54.03
2019-05-06T06:04:55.856Z,54.14
2019-05-06T06:05:52.373Z,53.94
2019-05-06T06:06:56.794Z,54.00
2019-05-06T06:08:02.875Z,53.81
2019-05-06T06:09:07.376Z,53.68
2019-05-06T06:10:13.274Z,52.71
2019-05-06T06:11:19.119Z,53.16
2019-05-06T06:12:23.400Z,53.42
2019-05-06T06:13:27.787Z,53.44
2019-05-06T06:14:43.728Z,53.34
2019-05-06T06:16:06.430Z,53.09
2019-05-06T06:17:32.500Z,52.08
2019-05-06T06:19:38.594Z,52.80
2019-05-06T06:24:36.463Z,53.27
2019-05-06T06:25:42.379Z,53.10
2019-05-06T06:26:46.608Z,53.33
2019-05-06T06:27:52.230Z,53.27
2019-05-06T06:28:56.507Z,53.19
2019-05-06T06:30:02.437Z,53.42
2019-05-06T06:31:15.975Z,53.69
2019-05-06T06:32:23.054Z,53.84
2019-05-06T06:33:27.812Z,53.42
2019-05-06T06:34:33.905Z,53.34
2019-05-06T06:35:42.618Z,52.82
2019-05-06T06:36:47.482Z,52.50
2019-05-06T06:37:56.478Z,51.53
2019-05-06T06:39:12.465Z,51.74
2019-05-06T06:40:22.133Z,51.72
2019-05-06T06:41:24.143Z,51.76
2019-05-06T06:42:28.703Z,51.88
2019-05-06T06:43:32.913Z,51.87
2019-05-06T06:44:37.140Z,51.54
2019-05-06T06:45:42.142Z,51.34
2019-05-06T06:46:46.632Z,50.77
2019-05-06T06:47:51.886Z,50.80
2019-05-06T06:48:56.213Z,50.83
2019-05-06T06:50:02.624Z,50.99
2019-05-06T06:51:06.284Z,51.10
2019-05-06T06:52:14.176Z,50.81
2019-05-06T06:53:16.879Z,49.92
2019-05-06T06:54:22.839Z,49.97
2019-05-06T06:55:27.207Z,50.10
2019-05-06T06:56:33.303Z,49.09
2019-05-06T06:57:42.521Z,50.02
2019-05-06T06:59:06.619Z,49.26
2019-05-06T07:00:13.491Z,47.74
2019-05-06T07:01:23.480Z,48.49
2019-05-06T07:02:35.978Z,49.12
2019-05-06T07:03:44.542Z,49.63
2019-05-06T07:04:52.590Z,48.61
2019-05-06T07:05:58.035Z,49.03
2019-05-06T07:07:03.905Z,49.11
2019-05-06T07:08:08.185Z,49.05
2019-05-06T07:09:12.653Z,49.40
2019-05-06T07:10:34.631Z,49.43
2019-05-06T07:11:38.807Z,48.78
2019-05-06T07:12:42.986Z,48.89
2019-05-06T07:13:53.505Z,48.59
2019-05-06T07:15:02.377Z,49.06
2019-05-06T07:16:06.279Z,49.13
2019-05-06T07:17:10.563Z,48.73
2019-05-06T07:18:15.589Z,48.25
2019-05-06T07:19:22.953Z,48.12
2019-05-06T07:20:32.374Z,48.29
2019-05-06T07:21:37.483Z,47.69
2019-05-06T07:22:42.504Z,47.59
2019-05-06T07:23:46.723Z,47.87
2019-05-06T07:24:52.702Z,47.15
2019-05-06T07:25:57.129Z,47.44
2019-05-06T07:27:03.120Z,47.90
2019-05-06T07:28:07.373Z,48.17
2019-05-06T07:29:15.330Z,46.89
2019-05-06T07:30:19.207Z,47.69
2019-05-06T07:31:26.494Z,48.00
2019-05-06T07:32:29.519Z,48.39
2019-05-06T07:33:34.064Z,47.52
2019-05-06T07:34:38.289Z,47.47
2019-05-06T07:35:43.959Z,46.11
2019-05-06T07:36:49.413Z,47.40
2019-05-06T07:37:53.925Z,47.34
2019-05-06T07:38:58.289Z,47.20
2019-05-06T07:40:03.156Z,46.49
2019-05-06T07:41:14.927Z,46.02
2019-05-06T07:42:19.770Z,46.07
2019-05-06T07:43:28.033Z,46.17
2019-05-06T07:44:46.002Z,45.64
2019-05-06T07:45:53.174Z,45.23
2019-05-06T07:47:04.833Z,45.61
2019-05-06T07:48:12.814Z,45.23
2019-05-06T07:49:18.143Z,44.95
2019-05-06T07:50:22.498Z,45.43
2019-05-06T07:51:27.213Z,45.11
2019-05-06T07:52:32.564Z,45.92
2019-05-06T07:53:37.008Z,45.96
2019-05-06T07:54:42.417Z,46.42
2019-05-06T07:55:46.768Z,46.99
2019-05-06T07:56:52.614Z,45.78
2019-05-06T07:57:57.211Z,45.10
2019-05-06T07:59:12.560Z,45.68
2019-05-06T08:00:16.199Z,45.40
2019-05-06T08:01:25.974Z,45.19
2019-05-06T08:02:27.953Z,45.74
2019-05-06T08:03:32.949Z,44.76
2019-05-06T08:04:37.404Z,44.27
2019-05-06T08:05:54.822Z,44.13
2019-05-06T08:06:47.562Z,45.06
2019-05-06T08:07:55.046Z,43.44
2019-05-06T08:08:57.862Z,43.60
2019-05-06T08:10:02.370Z,44.11
2019-05-06T08:11:07.867Z,44.21
2019-05-06T08:12:12.673Z,44.00
2019-05-06T08:13:16.978Z,44.13
2019-05-06T08:14:22.579Z,43.49
2019-05-06T08:15:27.221Z,44.27
2019-05-06T08:16:33.103Z,45.26
2019-05-06T08:17:38.361Z,44.85
2019-05-06T08:18:43.358Z,45.28
2019-05-06T08:19:47.554Z,45.11
2019-05-06T08:20:52.067Z,42.65
2019-05-06T08:22:02.664Z,42.61
2019-05-06T08:23:12.562Z,43.04
2019-05-06T08:24:16.906Z,43.47
2019-05-06T08:25:22.982Z,43.39
2019-05-06T08:26:27.274Z,42.83
2019-05-06T08:27:32.971Z,42.64
2019-05-06T08:28:41.414Z,41.82
2019-05-06T08:29:43.303Z,42.67
2019-05-06T08:30:47.639Z,42.66
2019-05-06T08:31:52.480Z,41.96
2019-05-06T08:32:57.111Z,41.87
2019-05-06T08:34:02.670Z,42.44
2019-05-06T08:35:09.956Z,42.18
2019-05-06T08:36:15.048Z,41.20
2019-05-06T08:37:23.850Z,41.80
2019-05-06T08:38:28.026Z,41.32
2019-05-06T08:39:32.778Z,42.17
2019-05-06T08:40:37.177Z,41.69
2019-05-06T08:41:42.312Z,40.43
2019-05-06T08:42:47.759Z,40.27
2019-05-06T08:43:52.861Z,40.72
2019-05-06T08:44:57.399Z,42.10
2019-05-06T08:46:03.203Z,41.58
2019-05-06T08:47:07.815Z,40.14
2019-05-06T08:48:13.070Z,39.72
2019-05-06T08:49:17.430Z,39.57
2019-05-06T08:50:23.374Z,39.93
2019-05-06T08:51:35.212Z,39.83
2019-05-06T08:52:57.258Z,39.89
2019-05-06T08:54:03.311Z,39.00
2019-05-06T08:55:07.835Z,39.27
2019-05-06T08:56:16.398Z,39.28
2019-05-06T08:57:19.822Z,39.12
2019-05-06T08:58:25.908Z,38.31
2019-05-06T08:59:32.095Z,38.11
2019-05-06T09:00:38.274Z,37.87
2019-05-06T09:01:44.162Z,36.71
2019-05-06T09:02:48.749Z,37.42
2019-05-06T09:04:06.433Z,36.82
2019-05-06T09:04:59.115Z,36.54
2019-05-06T09:06:03.414Z,37.26
2019-05-06T09:07:07.588Z,36.94
2019-05-06T09:08:13.700Z,37.79
2019-05-06T09:09:17.741Z,37.63
2019-05-06T09:10:22.805Z,37.35
2019-05-06T09:11:27.189Z,37.43
2019-05-06T09:12:32.935Z,37.06
2019-05-06T09:13:38.936Z,37.21
2019-05-06T09:14:43.658Z,38.23
2019-05-06T09:15:47.861Z,37.85
2019-05-06T09:16:53.886Z,38.02
2019-05-06T09:17:58.571Z,37.98
2019-05-06T09:19:04.249Z,37.89
2019-05-06T09:20:09.190Z,37.44
2019-05-06T09:21:13.999Z,37.83
2019-05-06T09:22:18.175Z,38.03
2019-05-06T09:23:22.734Z,37.03
2019-05-06T09:24:27.201Z,37.10
2019-05-06T09:25:32.263Z,37.79
2019-05-06T09:26:39.484Z,37.92
2019-05-06T09:27:48.350Z,36.35
2019-05-06T09:28:54.344Z,36.88
2019-05-06T09:30:02.841Z,37.62
2019-05-06T09:31:09.725Z,37.58
2019-05-06T09:32:18.981Z,37.23
2019-05-06T09:33:24.800Z,36.64
2019-05-06T09:34:36.414Z,36.51
2019-05-06T09:35:42.241Z,37.35
2019-05-06T09:36:52.657Z,37.92
2019-05-06T09:37:55.033Z,37.58
2019-05-06T09:38:59.488Z,36.63
2019-05-06T09:40:04.242Z,36.44
2019-05-06T09:41:09.402Z,36.83
2019-05-06T09:42:14.338Z,36.39
2019-05-06T09:43:18.800Z,36.45
2019-05-06T09:44:23.052Z,36.53
2019-05-06T09:45:27.328Z,37.13
2019-05-06T09:46:32.194Z,37.24
2019-05-06T09:47:44.325Z,36.70
2019-05-06T09:49:03.371Z,34.42
2019-05-06T09:50:09.271Z,35.10
2019-05-06T09:51:14.619Z,35.09
2019-05-06T09:52:19.489Z,32.42
2019-05-06T09:53:28.472Z,31.36
2019-05-06T09:54:34.535Z,32.00
2019-05-06T09:55:43.198Z,32.35
2019-05-06T09:56:49.270Z,32.67
2019-05-06T09:57:58.123Z,33.51
2019-05-06T09:59:02.431Z,34.42
2019-05-06T10:00:07.169Z,34.13
2019-05-06T10:01:13.207Z,33.68
2019-05-06T10:02:17.554Z,33.57
2019-05-06T10:03:22.602Z,33.76
2019-05-06T10:04:27.083Z,33.23
2019-05-06T10:05:31.575Z,33.54
2019-05-06T10:06:36.496Z,33.28
2019-05-06T10:07:41.000Z,32.69
2019-05-06T10:08:45.191Z,32.93
2019-05-06T10:09:52.361Z,32.88
2019-05-06T10:10:59.736Z,32.67
2019-05-06T10:12:02.288Z,32.31
2019-05-06T10:13:06.465Z,31.55
2019-05-06T10:14:12.912Z,31.77
2019-05-06T10:15:17.801Z,31.98
2019-05-06T10:16:22.070Z,32.69
2019-05-06T10:17:26.336Z,32.78
2019-05-06T10:18:31.032Z,32.75
2019-05-06T10:19:35.601Z,31.41
2019-05-06T10:20:44.135Z,31.88
2019-05-06T10:21:48.895Z,32.35
2019-05-06T10:22:53.133Z,32.30
2019-05-06T10:23:57.394Z,32.56
2019-05-06T10:25:03.654Z,32.79
2019-05-06T10:26:09.153Z,32.60
2019-05-06T10:27:16.420Z,32.86
2019-05-06T10:28:38.539Z,33.13
2019-05-06T10:29:44.793Z,33.46
2019-05-06T10:30:49.135Z,33.29
2019-05-06T10:32:00.925Z,32.65
2019-05-06T10:33:10.816Z,32.95
2019-05-06T10:34:15.409Z,32.83
2019-05-06T10:35:19.582Z,33.17
2019-05-06T10:36:23.764Z,33.14
2019-05-06T10:37:33.574Z,33.23
2019-05-06T10:38:47.346Z,33.23
2019-05-06T10:40:16.229Z,32.82
2019-05-06T10:41:22.509Z,33.39
2019-05-06T10:42:34.346Z,32.41
2019-05-06T10:44:00.034Z,33.01
2019-05-06T10:45:16.646Z,33.51
2019-05-06T10:46:22.563Z,33.83
2019-05-06T10:47:26.840Z,33.67
2019-05-06T10:48:31.424Z,33.86
2019-05-06T10:49:36.029Z,33.88
2019-05-06T10:50:42.418Z,33.79
2019-05-06T10:51:54.445Z,33.00
2019-05-06T10:53:02.549Z,33.33
2019-05-06T10:54:06.609Z,32.62
2019-05-06T10:55:12.293Z,32.78
2019-05-06T10:56:32.122Z,33.63
2019-05-06T10:57:40.382Z,32.01
2019-05-06T10:58:44.400Z,31.56
2019-05-06T10:59:48.743Z,32.22
2019-05-06T11:00:54.698Z,32.03
2019-05-06T11:02:05.024Z,32.60
2019-05-06T11:03:27.751Z,32.33
2019-05-06T11:04:33.127Z,31.33
2019-05-06T11:05:37.388Z,31.18
2019-05-06T11:06:42.973Z,31.69
2019-05-06T11:07:47.480Z,31.58
2019-05-06T11:08:52.511Z,31.61
2019-05-06T11:09:56.967Z,31.99
2019-05-06T11:11:15.031Z,32.50
2019-05-06T11:12:08.731Z,32.85
2019-05-06T11:13:13.259Z,31.74
2019-05-06T11:14:17.448Z,31.04
2019-05-06T11:15:23.336Z,30.99
2019-05-06T11:16:28.053Z,31.46
2019-05-06T11:17:32.664Z,32.30
2019-05-06T11:18:37.925Z,31.49
2019-05-06T11:19:44.340Z,31.47
2019-05-06T11:20:52.970Z,31.96
2019-05-06T11:21:54.659Z,32.08
2019-05-06T11:22:59.227Z,32.76
2019-05-06T11:24:06.289Z,32.70
2019-05-06T11:25:12.317Z,31.35
2019-05-06T11:26:16.736Z,31.82
2019-05-06T11:27:28.673Z,31.00
2019-05-06T11:28:42.670Z,31.53
2019-05-06T11:29:53.044Z,32.01
2019-05-06T11:30:58.911Z,31.72
2019-05-06T11:32:04.828Z,32.54
2019-05-06T11:33:12.634Z,33.10
2019-05-06T11:34:24.156Z,32.86
2019-05-06T11:35:45.921Z,32.91
2019-05-06T11:37:00.401Z,32.31
2019-05-06T11:38:06.720Z,31.63
2019-05-06T11:39:13.988Z,31.14
2019-05-06T11:40:17.368Z,30.89
2019-05-06T11:41:23.355Z,31.78
2019-05-06T11:42:32.428Z,31.55
2019-05-06T11:43:34.203Z,32.21
2019-05-06T11:44:38.691Z,32.20
2019-05-06T11:45:42.950Z,31.97
2019-05-06T11:46:47.145Z,31.80
2019-05-06T11:47:55.439Z,31.26
2019-05-06T11:48:58.058Z,31.57
2019-05-06T11:50:05.005Z,31.73
2019-05-06T11:51:12.720Z,31.51
2019-05-06T11:52:15.722Z,31.67
2019-05-06T11:53:19.924Z,32.14
2019-05-06T11:54:24.780Z,32.27
2019-05-06T11:55:34.383Z,32.05
2019-05-06T11:56:47.915Z,32.13
2019-05-06T11:57:44.645Z,31.41
2019-05-06T11:58:49.876Z,31.24
2019-05-06T11:59:54.363Z,30.49
2019-05-06T12:01:02.576Z,30.62
2019-05-06T12:02:07.402Z,31.10
2019-05-06T12:03:13.805Z,31.02
2019-05-06T12:04:18.298Z,31.20
2019-05-06T12:05:22.515Z,31.74
2019-05-06T12:06:26.911Z,31.48
2019-05-06T12:07:33.222Z,31.55
2019-05-06T12:08:36.956Z,31.22
2019-05-06T12:09:41.147Z,31.40
2019-05-06T12:10:45.389Z,30.84
2019-05-06T12:11:49.670Z,31.40
2019-05-06T12:12:53.847Z,31.72
2019-05-06T12:13:58.097Z,32.67
2019-05-06T12:15:03.483Z,31.84
2019-05-06T12:16:09.547Z,30.06
2019-05-06T12:17:14.178Z,29.76
2019-05-06T12:18:18.992Z,29.84
2019-05-06T12:19:23.383Z,30.14
2019-05-06T12:20:27.887Z,29.60
2019-05-06T12:21:33.119Z,29.04
2019-05-06T12:22:37.542Z,29.67
2019-05-06T12:23:44.932Z,29.52
2019-05-06T12:24:47.868Z,29.23
2019-05-06T12:25:52.902Z,30.19
2019-05-06T12:26:57.305Z,31.20
2019-05-06T12:28:03.040Z,31.20
2019-05-06T12:29:09.169Z,31.08
2019-05-06T12:30:14.962Z,31.33
2019-05-06T12:31:19.286Z,31.96
2019-05-06T12:32:28.470Z,32.08
2019-05-06T12:33:37.583Z,32.20
2019-05-06T12:34:42.971Z,31.10
2019-05-06T12:35:52.023Z,29.84
2019-05-06T12:36:55.624Z,29.29
2019-05-06T12:38:06.790Z,29.27
2019-05-06T12:39:19.620Z,29.15
2019-05-06T12:40:23.600Z,28.81
2019-05-06T12:41:29.056Z,28.54
2019-05-06T12:42:37.823Z,28.88
2019-05-06T12:43:45.526Z,28.21
2019-05-06T12:44:52.954Z,28.58
2019-05-06T12:46:04.953Z,29.76
2019-05-06T12:47:19.803Z,29.24
2019-05-06T12:48:28.587Z,28.60
2019-05-06T12:49:32.812Z,27.27
2019-05-06T12:50:37.020Z,27.50
2019-05-06T12:51:43.366Z,28.39
2019-05-06T12:52:47.208Z,28.49
2019-05-06T12:53:54.420Z,27.85
2019-05-06T12:55:14.726Z,28.20
2019-05-06T12:56:05.566Z,29.12
2019-05-06T12:57:12.426Z,28.90
2019-05-06T12:58:20.044Z,28.04
2019-05-06T12:59:22.283Z,28.62
2019-05-06T13:00:28.291Z,28.95
2019-05-06T13:01:34.002Z,28.89
2019-05-06T13:02:38.522Z,28.62
2019-05-06T13:03:44.482Z,28.82
2019-05-06T13:04:57.689Z,28.19
2019-05-06T13:05:55.025Z,28.77
2019-05-06T13:06:59.568Z,28.77
2019-05-06T13:08:06.274Z,29.01
2019-05-06T13:09:12.748Z,29.20
2019-05-06T13:10:19.205Z,28.96
2019-05-06T13:11:24.849Z,28.99
2019-05-06T13:12:33.513Z,28.64
2019-05-06T13:13:37.180Z,28.00
2019-05-06T13:14:43.096Z,28.82
2019-05-06T13:15:47.327Z,28.42
2019-05-06T13:16:53.209Z,27.82
2019-05-06T13:17:57.610Z,27.35
2019-05-06T13:19:03.282Z,27.52
2019-05-06T13:20:08.008Z,27.74
2019-05-06T13:21:12.805Z,27.65
2019-05-06T13:22:18.870Z,28.15
2019-05-06T13:23:25.775Z,28.27
2019-05-06T13:24:32.579Z,27.65
2019-05-06T13:25:36.824Z,27.40
2019-05-06T13:26:43.200Z,27.76
2019-05-06T13:27:47.788Z,26.32
2019-05-06T13:28:53.603Z,26.71
2019-05-06T13:29:57.839Z,26.61
2019-05-06T13:31:16.001Z,26.64
2019-05-06T13:32:09.779Z,27.83
2019-05-06T13:33:34.160Z,27.86
2019-05-06T13:34:37.430Z,27.78
2019-05-06T13:35:42.007Z,28.26
2019-05-06T13:36:46.389Z,28.11
2019-05-06T13:37:52.675Z,28.06
2019-05-06T13:39:09.541Z,28.15
2019-05-06T13:40:03.486Z,27.71
2019-05-06T13:41:07.792Z,27.68
2019-05-06T13:42:13.772Z,27.29
2019-05-06T13:43:19.836Z,27.98
2019-05-06T13:44:24.042Z,27.83
2019-05-06T13:45:28.301Z,27.91
2019-05-06T13:46:34.181Z,27.61
2019-05-06T13:47:48.922Z,27.04
2019-05-06T13:48:57.435Z,27.27
2019-05-06T13:50:02.948Z,27.33
2019-05-06T13:51:09.684Z,27.31
2019-05-06T13:52:13.991Z,27.02
2019-05-06T13:53:18.231Z,27.43
2019-05-06T13:54:22.639Z,27.50
2019-05-06T13:55:26.885Z,27.52
2019-05-06T13:56:33.110Z,27.21
2019-05-06T13:57:39.399Z,27.53
2019-05-06T13:58:43.862Z,27.53
2019-05-06T13:59:48.203Z,27.33
2019-05-06T14:00:52.473Z,27.30
2019-05-06T14:01:58.373Z,26.90
2019-05-06T14:03:02.650Z,27.37
2019-05-06T14:04:06.853Z,27.04
2019-05-06T14:05:12.169Z,27.15
2019-05-06T14:06:17.727Z,26.13
2019-05-06T14:07:24.260Z,26.35
2019-05-06T14:08:27.871Z,26.89
2019-05-06T14:09:39.314Z,27.16
2019-05-06T14:10:38.059Z,26.61
2019-05-06T14:11:42.435Z,26.53
2019-05-06T14:12:46.598Z,26.85
2019-05-06T14:13:52.924Z,26.83
2019-05-06T14:14:57.939Z,26.81
2019-05-06T14:16:03.984Z,27.04
2019-05-06T14:17:07.982Z,26.06
2019-05-06T14:18:13.419Z,25.92
2019-05-06T14:19:17.782Z,26.07